Погода Акашочитланна 2 недели

Идальго, Мексика

25 февраля-08 марта
  • 25февраля
    Сегодня
    +6°
    +28°
    Ясно и безоблачно
    ВремяПогодаТемператураВлажностьДавлениеВетер, м/сВероятность осадков
    00:00Практически безоблачно+12°C98 %597 мм1.1 м/с15 %
    03:00Небольшая облачность+10°C83 %595 мм1.7 м/с10 %
    06:00Ясно и безоблачно+9°C58 %594 мм1.8 м/с2 %
    09:00Ясно и безоблачно+17°C50 %598 мм0.7 м/с2 %
    12:00Небольшая облачность+26°C41 %603 мм1.9 м/с2 %
    15:00Ясно и безоблачно+28°C52 %602 мм4.0 м/с2 %
    18:00Ясно и безоблачно+23°C77 %600 мм2.2 м/с2 %
    21:00Ясно и безоблачно+16°C59 %598 мм0.9 м/с2 %
  • 26февраля
    Понедельник
    +6°
    +29°
    Ясно и безоблачно
    ВремяПогодаТемператураВлажностьДавлениеВетер, м/сВероятность осадков
    00:00Ясно и безоблачно+13°C45 %596 мм1.3 м/с2 %
    03:00Ясно и безоблачно+12°C50 %595 мм1.5 м/с2 %
    06:00Ясно и безоблачно+11°C56 %594 мм1.4 м/с2 %
    09:00Ясно и безоблачно+17°C53 %598 мм0.9 м/с2 %
    12:00Ясно и безоблачно+27°C26 %602 мм1.9 м/с2 %
    15:00Ясно и безоблачно+29°C37 %601 мм3.7 м/с2 %
    18:00Ясно и безоблачно+24°C65 %599 мм2.5 м/с2 %
    21:00Ясно и безоблачно+17°C43 %597 мм1.3 м/с2 %
  • 27февраля
    Вторник
    +8°
    +31°
    Ясно и безоблачно
    ВремяПогодаТемператураВлажностьДавлениеВетер, м/сВероятность осадков
    00:00Ясно и безоблачно+15°C57 %595 мм2.0 м/с2 %
    03:00Ясно и безоблачно+12°C52 %592 мм2.6 м/с2 %
    06:00Ясно и безоблачно+12°C56 %592 мм2.7 м/с2 %
    09:00Ясно и безоблачно+18°C52 %597 мм1.5 м/с2 %
    12:00Ясно и безоблачно+29°C24 %600 мм0.6 м/с2 %
    15:00Ясно и безоблачно+31°C29 %599 мм2.2 м/с2 %
    18:00Ясно и безоблачно+26°C53 %598 мм2.4 м/с2 %
    21:00Практически безоблачно+19°C48 %595 мм1.8 м/с2 %
  • 28февраля
    Среда
    +6°
    +31°
    Небольшая облачность
    ВремяПогодаТемператураВлажностьДавлениеВетер, м/сВероятность осадков
    00:00Ясно и безоблачно+16°C36 %593 мм2.4 м/с2 %
    03:00Ясно и безоблачно+14°C44 %592 мм2.9 м/с2 %
    06:00Ясно и безоблачно+14°C58 %592 мм2.8 м/с2 %
    09:00Небольшая облачность+20°C45 %597 мм1.5 м/с2 %
    12:00Облачно с прояснениями+29°C27 %601 мм1.7 м/с2 %
    15:00Небольшая облачность+30°C29 %600 мм3.9 м/с4 %
    18:00Практически безоблачно+25°C71 %599 мм3.7 м/с3 %
    21:00Практически безоблачно+18°C67 %598 мм1.5 м/с12 %
Мы используем cookies
Соглашаюсь